createdAt,value
2018-09-27T00:01:27.788Z,36.07
2018-09-27T00:03:55.847Z,32.77
2018-09-27T00:06:23.928Z,31.53
2018-09-27T00:08:51.979Z,34.00
2018-09-27T00:11:20.042Z,30.27
2018-09-27T00:13:48.174Z,31.93
2018-09-27T00:16:16.227Z,32.33
2018-09-27T00:18:44.290Z,35.03
2018-09-27T00:21:12.336Z,33.97
2018-09-27T00:23:40.391Z,33.33
2018-09-27T00:26:08.628Z,33.17
2018-09-27T00:28:36.692Z,34.63
2018-09-27T00:31:04.731Z,39.57
2018-09-27T00:33:32.814Z,38.77
2018-09-27T00:36:00.835Z,32.77
2018-09-27T00:38:28.874Z,36.07
2018-09-27T00:40:56.922Z,36.17
2018-09-27T00:43:24.954Z,38.60
2018-09-27T00:45:52.988Z,40.63
2018-09-27T00:48:21.059Z,39.90
2018-09-27T00:50:49.126Z,37.20
2018-09-27T00:53:17.254Z,38.27
2018-09-27T00:55:45.384Z,38.83
2018-09-27T00:58:13.472Z,38.43
2018-09-27T01:00:41.552Z,38.37
2018-09-27T01:03:09.653Z,46.60
2018-09-27T01:05:38.392Z,38.23
2018-09-27T01:08:06.676Z,42.90
2018-09-27T01:10:34.775Z,41.37
2018-09-27T01:13:03.017Z,49.83
2018-09-27T01:15:31.099Z,40.87
2018-09-27T01:17:59.282Z,40.37
2018-09-27T01:20:27.371Z,45.63
2018-09-27T01:22:55.895Z,44.63
2018-09-27T01:25:24.007Z,46.60
2018-09-27T01:27:52.106Z,47.23
2018-09-27T01:30:20.258Z,44.17
2018-09-27T01:32:48.402Z,43.77
2018-09-27T01:35:16.513Z,44.73
2018-09-27T01:37:44.594Z,45.50
2018-09-27T01:40:12.722Z,41.53
2018-09-27T01:42:40.815Z,45.40
2018-09-27T01:45:08.890Z,42.80
2018-09-27T01:47:37.000Z,44.47
2018-09-27T01:50:05.153Z,39.97
2018-09-27T01:52:33.310Z,43.83
2018-09-27T01:55:01.484Z,48.37
2018-09-27T01:57:29.606Z,43.33
2018-09-27T01:59:57.722Z,40.90
2018-09-27T02:02:25.819Z,38.70
2018-09-27T02:04:53.955Z,42.87
2018-09-27T02:07:22.068Z,37.30
2018-09-27T02:09:50.239Z,35.07
2018-09-27T02:12:18.379Z,35.87
2018-09-27T02:14:46.470Z,44.37
2018-09-27T02:17:14.657Z,35.43
2018-09-27T02:19:42.843Z,39.93
2018-09-27T02:22:11.005Z,32.97
2018-09-27T02:24:39.186Z,36.03
2018-09-27T02:27:07.330Z,33.40
2018-09-27T02:29:35.411Z,37.63
2018-09-27T02:32:03.497Z,36.33
2018-09-27T02:34:31.630Z,31.43
2018-09-27T02:36:59.810Z,28.27
2018-09-27T02:39:27.900Z,29.03
2018-09-27T02:41:55.968Z,29.33
2018-09-27T02:44:24.139Z,31.07
2018-09-27T02:46:52.231Z,30.03
2018-09-27T02:49:20.359Z,30.80
2018-09-27T02:51:48.579Z,31.00
2018-09-27T02:54:16.759Z,31.33
2018-09-27T02:56:44.884Z,29.40
2018-09-27T02:59:13.007Z,30.70
2018-09-27T03:01:41.177Z,31.30
2018-09-27T03:04:09.309Z,27.97
2018-09-27T03:06:37.436Z,28.60
2018-09-27T03:09:07.480Z,28.37
2018-09-27T03:11:35.577Z,30.70
2018-09-27T03:14:03.729Z,30.40
2018-09-27T03:16:31.820Z,32.57
2018-09-27T03:18:59.921Z,31.83
2018-09-27T03:21:28.011Z,30.30
2018-09-27T03:23:56.180Z,27.57
2018-09-27T03:26:24.330Z,32.57
2018-09-27T03:28:52.532Z,29.20
2018-09-27T03:31:20.762Z,27.80
2018-09-27T03:33:48.857Z,27.90
2018-09-27T03:36:16.996Z,28.23
2018-09-27T03:38:45.224Z,31.50
2018-09-27T03:41:13.386Z,30.70
2018-09-27T03:43:41.842Z,30.37
2018-09-27T03:46:10.048Z,28.83
2018-09-27T03:48:38.228Z,32.60
2018-09-27T03:51:06.464Z,39.00
2018-09-27T03:53:34.556Z,31.30
2018-09-27T03:56:02.751Z,30.87
2018-09-27T03:58:30.875Z,30.20
2018-09-27T04:00:58.995Z,29.03
2018-09-27T04:03:27.210Z,31.03
2018-09-27T04:05:55.322Z,32.53
2018-09-27T04:08:23.491Z,30.97
2018-09-27T04:10:51.580Z,36.90
2018-09-27T04:13:19.762Z,32.23
2018-09-27T04:15:47.992Z,36.90
2018-09-27T04:18:16.099Z,28.40
2018-09-27T04:20:49.663Z,34.40
2018-09-27T04:23:18.404Z,34.83
2018-09-27T04:25:46.523Z,31.83
2018-09-27T04:28:14.593Z,32.60
2018-09-27T04:30:42.716Z,38.10
2018-09-27T04:33:10.843Z,33.23
2018-09-27T04:35:38.922Z,36.50
2018-09-27T04:38:07.275Z,33.60
2018-09-27T04:40:35.355Z,34.83
2018-09-27T04:43:03.822Z,31.37
2018-09-27T04:45:31.918Z,28.13
2018-09-27T04:48:00.024Z,36.13
2018-09-27T04:50:28.152Z,30.20
2018-09-27T04:52:56.239Z,32.60
2018-09-27T04:55:24.370Z,35.93
2018-09-27T04:57:52.466Z,30.47
2018-09-27T05:00:20.572Z,35.77
2018-09-27T05:02:48.711Z,35.13
2018-09-27T05:05:16.810Z,35.20
2018-09-27T05:07:44.991Z,35.23
2018-09-27T05:10:13.070Z,32.83
2018-09-27T05:12:41.212Z,36.50
2018-09-27T05:15:09.307Z,32.20
2018-09-27T05:17:37.392Z,32.60
2018-09-27T05:20:05.463Z,31.10
2018-09-27T05:22:33.556Z,30.77
2018-09-27T05:25:01.761Z,34.40
2018-09-27T05:27:29.904Z,38.70
2018-09-27T05:29:58.003Z,31.27
2018-09-27T05:32:26.104Z,34.67
2018-09-27T05:34:54.199Z,33.67
2018-09-27T05:37:22.299Z,33.10
2018-09-27T05:39:50.376Z,29.97
2018-09-27T05:42:18.509Z,35.37
2018-09-27T05:44:46.639Z,36.23
2018-09-27T05:47:14.739Z,37.20
2018-09-27T05:49:42.854Z,36.43
2018-09-27T05:52:10.935Z,32.40
2018-09-27T05:54:39.022Z,34.13
2018-09-27T05:57:07.118Z,37.40
2018-09-27T05:59:35.262Z,34.00
2018-09-27T06:02:03.405Z,32.20
2018-09-27T06:04:31.504Z,35.37
2018-09-27T06:06:59.682Z,30.83
2018-09-27T06:09:27.825Z,31.20
2018-09-27T06:11:55.858Z,32.83
2018-09-27T06:14:23.938Z,37.10
2018-09-27T06:16:52.048Z,33.50
2018-09-27T06:19:20.203Z,33.93
2018-09-27T06:21:48.324Z,30.73
2018-09-27T06:24:16.427Z,32.83
2018-09-27T06:26:44.594Z,34.53
2018-09-27T06:29:12.694Z,34.67
2018-09-27T06:31:40.837Z,31.03
2018-09-27T06:34:09.022Z,30.90
2018-09-27T06:36:37.184Z,32.10
2018-09-27T06:39:06.448Z,34.43
2018-09-27T06:41:34.595Z,32.30
2018-09-27T06:44:02.751Z,28.87
2018-09-27T06:46:30.997Z,32.47
2018-09-27T06:48:59.084Z,30.07
2018-09-27T06:51:27.253Z,31.03
2018-09-27T06:53:55.383Z,32.00
2018-09-27T06:56:23.494Z,28.80
2018-09-27T06:58:51.583Z,27.27
2018-09-27T07:01:19.703Z,28.13
2018-09-27T07:03:47.898Z,26.53
2018-09-27T07:06:16.017Z,26.23
2018-09-27T07:08:44.174Z,29.93
2018-09-27T07:11:12.344Z,28.83
2018-09-27T07:13:40.503Z,26.30
2018-09-27T07:16:08.643Z,25.13
2018-09-27T07:18:36.777Z,31.67
2018-09-27T07:21:04.923Z,25.50
2018-09-27T07:23:33.012Z,26.23
2018-09-27T07:26:01.448Z,25.80
2018-09-27T07:28:29.631Z,26.83
2018-09-27T07:30:57.740Z,23.30
2018-09-27T07:33:25.860Z,24.50
2018-09-27T07:35:53.952Z,22.50
2018-09-27T07:38:22.197Z,23.83
2018-09-27T07:40:50.238Z,24.90
2018-09-27T07:43:18.377Z,20.73
2018-09-27T07:45:46.539Z,22.73
2018-09-27T07:48:14.706Z,20.67
2018-09-27T07:50:42.877Z,25.83
2018-09-27T07:53:10.949Z,26.43
2018-09-27T07:55:39.132Z,23.23
2018-09-27T07:58:07.619Z,19.90
2018-09-27T08:00:35.694Z,22.63
2018-09-27T08:03:04.153Z,22.67
2018-09-27T08:05:32.281Z,21.90
2018-09-27T08:08:00.453Z,23.30
2018-09-27T08:10:28.538Z,19.40
2018-09-27T08:12:56.688Z,22.43
2018-09-27T08:15:24.767Z,20.87
2018-09-27T08:17:52.924Z,22.20
2018-09-27T08:20:21.493Z,22.30
2018-09-27T08:22:49.882Z,19.37
2018-09-27T08:25:17.972Z,20.03
2018-09-27T08:27:46.131Z,23.80
2018-09-27T08:30:14.207Z,19.07
2018-09-27T08:32:42.311Z,17.63
2018-09-27T08:35:10.759Z,20.60
2018-09-27T08:37:38.924Z,18.87
2018-09-27T08:40:07.091Z,18.37
2018-09-27T08:42:35.249Z,18.67
2018-09-27T08:45:03.588Z,18.10
2018-09-27T08:47:31.517Z,17.27
2018-09-27T08:49:59.733Z,19.40
2018-09-27T08:52:27.879Z,17.03
2018-09-27T08:54:56.063Z,16.37
2018-09-27T08:57:24.266Z,22.93
2018-09-27T08:59:52.402Z,18.90
2018-09-27T09:02:20.544Z,19.50
2018-09-27T09:04:48.717Z,20.47
2018-09-27T09:07:16.817Z,17.27
2018-09-27T09:09:44.963Z,16.27
2018-09-27T09:12:13.115Z,21.87
2018-09-27T09:14:41.210Z,18.43
2018-09-27T09:17:09.298Z,19.27
2018-09-27T09:19:37.448Z,17.93
2018-09-27T09:22:05.658Z,19.87
2018-09-27T09:24:33.800Z,18.30
2018-09-27T09:27:01.906Z,14.00
2018-09-27T09:29:30.079Z,22.07
2018-09-27T09:31:58.166Z,15.67
2018-09-27T09:34:26.506Z,13.53
2018-09-27T09:36:54.599Z,18.43
2018-09-27T09:39:22.754Z,15.53
2018-09-27T09:41:50.862Z,13.27
2018-09-27T09:44:18.963Z,11.90
2018-09-27T09:46:47.119Z,13.07
2018-09-27T09:49:15.230Z,14.30
2018-09-27T09:51:43.404Z,13.63
2018-09-27T09:54:11.505Z,11.30
2018-09-27T09:56:39.789Z,12.20
2018-09-27T09:59:07.946Z,15.03
2018-09-27T10:01:36.048Z,14.00
2018-09-27T10:04:04.183Z,18.03
2018-09-27T10:06:32.435Z,13.57
2018-09-27T10:09:00.585Z,10.63
2018-09-27T10:11:28.799Z,16.27
2018-09-27T10:13:57.821Z,14.70
2018-09-27T10:16:25.972Z,12.47
2018-09-27T10:18:54.166Z,12.57
2018-09-27T10:21:22.356Z,13.90
2018-09-27T10:23:50.491Z,13.87
2018-09-27T10:26:18.593Z,9.13
2018-09-27T10:28:46.739Z,8.70
2018-09-27T10:31:14.948Z,10.70
2018-09-27T10:33:43.140Z,12.47
2018-09-27T10:36:11.303Z,11.47
2018-09-27T10:38:39.519Z,11.47
2018-09-27T10:41:07.640Z,10.87
2018-09-27T10:43:35.810Z,10.03
2018-09-27T10:46:03.956Z,9.57
2018-09-27T10:48:32.143Z,8.40
2018-09-27T10:51:00.331Z,9.10
2018-09-27T10:53:28.626Z,11.90
2018-09-27T10:55:56.766Z,11.40
2018-09-27T10:58:25.078Z,6.73
2018-09-27T11:00:53.199Z,11.40
2018-09-27T11:03:21.300Z,8.73
2018-09-27T11:05:49.507Z,8.07
2018-09-27T11:08:17.967Z,10.80
2018-09-27T11:10:46.095Z,7.60
2018-09-27T11:13:14.203Z,7.30
2018-09-27T11:15:42.370Z,8.17
2018-09-27T11:18:10.463Z,8.77
2018-09-27T11:20:38.604Z,8.70
2018-09-27T11:23:06.837Z,9.60
2018-09-27T11:25:34.959Z,9.70
2018-09-27T11:28:03.111Z,7.83
2018-09-27T11:30:33.266Z,7.30
2018-09-27T11:33:01.455Z,7.87
2018-09-27T11:35:29.514Z,8.50
2018-09-27T11:37:57.665Z,7.27
2018-09-27T11:40:25.861Z,9.47
2018-09-27T11:42:54.079Z,7.13
2018-09-27T11:45:22.131Z,9.33
2018-09-27T11:47:50.233Z,7.67
2018-09-27T11:50:18.410Z,7.53
2018-09-27T11:52:46.459Z,6.47
2018-09-27T11:55:14.569Z,9.43
2018-09-27T11:57:42.670Z,8.73
2018-09-27T12:00:10.827Z,9.40
2018-09-27T12:02:39.203Z,9.03
2018-09-27T12:05:07.693Z,7.10
2018-09-27T12:07:36.171Z,7.37
2018-09-27T12:10:04.556Z,7.93
2018-09-27T12:12:33.065Z,7.13
2018-09-27T12:15:01.475Z,9.77
2018-09-27T12:17:29.939Z,7.37
2018-09-27T12:19:58.441Z,8.77
2018-09-27T12:22:26.849Z,8.90
2018-09-27T12:24:55.354Z,7.60
2018-09-27T12:27:23.849Z,7.33
2018-09-27T12:29:52.261Z,9.93
2018-09-27T12:32:20.692Z,11.60
2018-09-27T12:34:49.351Z,7.53
2018-09-27T12:37:17.759Z,9.00
2018-09-27T12:39:46.324Z,8.33
2018-09-27T12:42:14.796Z,10.47
2018-09-27T12:44:43.060Z,8.87
2018-09-27T12:47:11.507Z,9.50
2018-09-27T12:49:39.904Z,9.57
2018-09-27T12:52:08.648Z,10.20
2018-09-27T12:54:36.751Z,10.10
2018-09-27T12:57:05.484Z,9.87
2018-09-27T12:59:33.896Z,12.93
2018-09-27T13:02:02.439Z,11.63
2018-09-27T13:04:30.732Z,10.90
2018-09-27T13:06:59.228Z,8.83
2018-09-27T13:09:27.939Z,7.57
2018-09-27T13:11:56.290Z,10.00
2018-09-27T13:14:25.331Z,8.57
2018-09-27T13:16:53.753Z,9.37
2018-09-27T13:19:22.327Z,9.50
2018-09-27T13:21:50.755Z,9.90
2018-09-27T13:24:19.184Z,8.03
2018-09-27T13:26:47.704Z,10.13
2018-09-27T13:29:16.163Z,12.80
2018-09-27T13:31:44.595Z,10.67
2018-09-27T13:34:13.031Z,8.90
2018-09-27T13:36:41.518Z,10.53
2018-09-27T13:39:10.592Z,11.43
2018-09-27T13:41:40.099Z,9.03
2018-09-27T13:44:08.904Z,10.63
2018-09-27T13:46:37.654Z,9.13
2018-09-27T13:49:06.293Z,8.80
2018-09-27T13:51:34.756Z,9.60
2018-09-27T13:54:03.180Z,9.17
2018-09-27T13:56:31.613Z,11.90
2018-09-27T13:59:00.040Z,12.47
2018-09-27T14:01:28.512Z,12.63
2018-09-27T14:03:57.362Z,10.43
2018-09-27T14:06:25.830Z,11.43
2018-09-27T14:08:54.284Z,12.63
2018-09-27T14:11:22.769Z,14.03
2018-09-27T14:13:51.200Z,9.60
2018-09-27T14:16:19.731Z,12.30
2018-09-27T14:18:48.291Z,13.97
2018-09-27T14:21:16.814Z,11.40
2018-09-27T14:23:45.265Z,10.93
2018-09-27T14:26:13.692Z,11.17
2018-09-27T14:28:42.132Z,12.30
2018-09-27T14:31:11.128Z,11.90
2018-09-27T14:33:39.669Z,12.87
2018-09-27T14:36:08.111Z,11.47
2018-09-27T14:38:36.564Z,11.50
2018-09-27T14:41:05.111Z,10.43
2018-09-27T14:43:33.596Z,9.77
2018-09-27T14:46:02.033Z,14.67
2018-09-27T14:48:30.720Z,13.60
2018-09-27T14:50:59.712Z,14.63
2018-09-27T14:53:28.174Z,13.77
2018-09-27T14:55:56.571Z,11.67
2018-09-27T14:58:25.321Z,12.10
2018-09-27T15:00:53.804Z,11.70
2018-09-27T15:03:22.523Z,14.30
2018-09-27T15:05:51.747Z,14.20
2018-09-27T15:08:20.216Z,14.77
2018-09-27T15:10:48.775Z,10.80
2018-09-27T15:13:18.120Z,14.43
2018-09-27T15:15:46.599Z,14.07
2018-09-27T15:18:15.029Z,16.40
2018-09-27T15:20:43.536Z,15.10
2018-09-27T15:23:12.584Z,14.93
2018-09-27T15:25:41.078Z,15.57
2018-09-27T15:28:09.603Z,18.20
2018-09-27T15:30:38.071Z,17.10
2018-09-27T15:33:06.616Z,14.90
2018-09-27T15:35:35.096Z,15.77
2018-09-27T15:38:03.620Z,16.60
2018-09-27T15:40:32.084Z,16.90
2018-09-27T15:43:00.549Z,15.00
2018-09-27T15:45:29.012Z,15.00
2018-09-27T15:47:57.431Z,16.07
2018-09-27T15:50:25.908Z,13.50
2018-09-27T15:52:54.463Z,12.43
2018-09-27T15:55:22.997Z,14.47
2018-09-27T15:57:51.420Z,14.00
2018-09-27T16:00:19.567Z,12.27
2018-09-27T16:02:47.766Z,11.13
2018-09-27T16:05:16.331Z,12.97
2018-09-27T16:07:44.606Z,18.53
2018-09-27T16:10:12.761Z,9.47
2018-09-27T16:12:40.963Z,13.17
2018-09-27T16:15:09.196Z,11.03
2018-09-27T16:17:37.428Z,8.43
2018-09-27T16:20:05.727Z,9.20
2018-09-27T16:22:33.871Z,10.50
2018-09-27T16:25:02.041Z,6.90
2018-09-27T16:27:30.180Z,8.50
2018-09-27T16:29:58.302Z,5.17
2018-09-27T16:32:26.409Z,5.67
2018-09-27T16:34:54.578Z,4.67
2018-09-27T16:37:22.691Z,5.13
2018-09-27T16:39:51.308Z,5.97
2018-09-27T16:42:20.093Z,5.03
2018-09-27T16:44:48.376Z,4.40
2018-09-27T16:47:16.481Z,5.63
2018-09-27T16:49:44.580Z,5.70
2018-09-27T16:52:12.955Z,6.90
2018-09-27T16:54:41.272Z,5.63
2018-09-27T16:57:10.123Z,6.00
2018-09-27T16:59:38.326Z,5.03
2018-09-27T17:02:06.400Z,5.67
2018-09-27T17:04:34.647Z,7.27
2018-09-27T17:07:02.780Z,4.87
2018-09-27T17:09:30.887Z,6.07
2018-09-27T17:11:59.017Z,6.40
2018-09-27T17:14:27.150Z,6.27
2018-09-27T17:16:55.404Z,5.97
2018-09-27T17:19:23.537Z,6.80
2018-09-27T17:21:52.543Z,7.93
2018-09-27T17:24:20.698Z,8.43
2018-09-27T17:26:48.913Z,7.17
2018-09-27T17:29:17.066Z,7.27
2018-09-27T17:31:45.177Z,7.60
2018-09-27T17:34:13.276Z,6.87
2018-09-27T17:36:41.374Z,6.17
2018-09-27T17:39:09.849Z,5.13
2018-09-27T17:41:38.326Z,4.70
2018-09-27T17:44:06.534Z,4.27
2018-09-27T17:46:34.746Z,4.80
2018-09-27T17:49:02.834Z,5.67
2018-09-27T17:51:31.125Z,5.77
2018-09-27T17:53:59.250Z,6.97
2018-09-27T17:56:27.370Z,6.17
2018-09-27T17:58:55.600Z,5.27
2018-09-27T18:01:23.714Z,7.20
2018-09-27T18:03:51.844Z,5.53
2018-09-27T18:06:19.995Z,8.57
2018-09-27T18:08:48.139Z,7.93
2018-09-27T18:11:16.289Z,8.57
2018-09-27T18:13:44.694Z,11.03
2018-09-27T18:16:12.769Z,7.53
2018-09-27T18:18:41.596Z,6.70
2018-09-27T18:21:09.711Z,6.70
2018-09-27T18:23:37.867Z,5.43
2018-09-27T18:26:06.043Z,7.37
2018-09-27T18:28:34.260Z,5.60
2018-09-27T18:31:02.424Z,5.43
2018-09-27T18:33:30.567Z,7.60
2018-09-27T18:35:58.672Z,7.83
2018-09-27T18:38:26.857Z,10.70
2018-09-27T18:40:55.170Z,7.50
2018-09-27T18:43:23.388Z,9.20
2018-09-27T18:45:51.656Z,5.77
2018-09-27T18:48:19.904Z,8.60
2018-09-27T18:50:48.055Z,9.33
2018-09-27T18:53:16.452Z,9.30
2018-09-27T18:55:44.621Z,8.30
2018-09-27T18:58:12.843Z,12.00
2018-09-27T19:00:40.971Z,9.07
2018-09-27T19:03:09.562Z,8.80
2018-09-27T19:05:37.803Z,9.03
2018-09-27T19:08:05.953Z,9.70
2018-09-27T19:10:34.035Z,9.00
2018-09-27T19:13:02.156Z,8.23
2018-09-27T19:15:30.299Z,8.87
2018-09-27T19:17:58.445Z,9.27
2018-09-27T19:20:26.568Z,9.50
2018-09-27T19:22:54.735Z,10.30
2018-09-27T19:25:22.982Z,9.67
2018-09-27T19:27:51.177Z,14.80
2018-09-27T19:30:19.342Z,11.63
2018-09-27T19:32:47.526Z,10.47
2018-09-27T19:35:15.678Z,10.23
2018-09-27T19:37:43.802Z,13.37
2018-09-27T19:40:11.944Z,14.10
2018-09-27T19:42:40.041Z,10.63
2018-09-27T19:45:08.161Z,10.70
2018-09-27T19:47:36.267Z,14.03
2018-09-27T19:50:04.672Z,11.87
2018-09-27T19:52:32.816Z,17.10
2018-09-27T19:55:00.950Z,12.63
2018-09-27T19:57:29.069Z,13.60
2018-09-27T19:59:57.231Z,11.47
2018-09-27T20:02:25.463Z,11.73
2018-09-27T20:04:53.589Z,13.80
2018-09-27T20:07:21.851Z,15.57
2018-09-27T20:09:49.951Z,13.07
2018-09-27T20:12:18.094Z,13.20
2018-09-27T20:14:46.287Z,14.37
2018-09-27T20:17:14.443Z,12.23
2018-09-27T20:19:42.619Z,13.53
2018-09-27T20:22:11.546Z,15.57
2018-09-27T20:24:39.627Z,12.20
2018-09-27T20:27:08.399Z,15.03
2018-09-27T20:29:36.556Z,14.67
2018-09-27T20:32:04.942Z,12.47
2018-09-27T20:34:33.156Z,12.23
2018-09-27T20:37:01.267Z,13.63
2018-09-27T20:39:29.457Z,14.07
2018-09-27T20:41:57.641Z,13.17
2018-09-27T20:44:25.834Z,17.90
2018-09-27T20:46:53.954Z,14.97
2018-09-27T20:49:22.077Z,19.03
2018-09-27T20:51:50.242Z,17.40
2018-09-27T20:54:18.379Z,18.00
2018-09-27T20:56:46.554Z,17.83
2018-09-27T20:59:14.748Z,16.07
2018-09-27T21:01:42.911Z,15.43
2018-09-27T21:04:11.033Z,17.50
2018-09-27T21:06:39.226Z,20.50
2018-09-27T21:09:08.249Z,14.63
2018-09-27T21:11:36.363Z,19.13
2018-09-27T21:14:04.551Z,19.30
2018-09-27T21:16:32.651Z,17.13
2018-09-27T21:19:00.861Z,17.17
2018-09-27T21:21:29.038Z,17.97
2018-09-27T21:23:57.180Z,20.43
2018-09-27T21:26:25.428Z,18.10
2018-09-27T21:28:53.559Z,19.40
2018-09-27T21:31:21.691Z,20.97
2018-09-27T21:33:49.816Z,20.70
2018-09-27T21:36:17.961Z,23.67
2018-09-27T21:38:46.136Z,20.53
2018-09-27T21:41:14.256Z,19.90
2018-09-27T21:43:42.392Z,19.80
2018-09-27T21:46:10.555Z,22.77
2018-09-27T21:48:38.754Z,19.13
2018-09-27T21:51:06.912Z,25.00
2018-09-27T21:53:35.079Z,23.67
2018-09-27T21:56:03.252Z,20.87
2018-09-27T21:58:31.451Z,23.77
2018-09-27T22:00:59.619Z,26.33
2018-09-27T22:03:27.774Z,26.73
2018-09-27T22:05:55.950Z,23.70
2018-09-27T22:08:24.119Z,29.10
2018-09-27T22:10:52.315Z,24.63
2018-09-27T22:13:20.460Z,26.43
2018-09-27T22:15:48.648Z,24.33
2018-09-27T22:18:16.825Z,24.80
2018-09-27T22:20:44.998Z,26.77
2018-09-27T22:23:13.193Z,25.73
2018-09-27T22:25:41.336Z,25.63
2018-09-27T22:28:09.521Z,29.27
2018-09-27T22:30:37.738Z,30.80
2018-09-27T22:33:05.912Z,30.10
2018-09-27T22:35:34.035Z,30.03
2018-09-27T22:38:02.138Z,32.57
2018-09-27T22:40:30.282Z,32.43
2018-09-27T22:42:58.384Z,28.37
2018-09-27T22:45:26.528Z,36.67
2018-09-27T22:47:54.727Z,29.80
2018-09-27T22:50:22.875Z,33.80
2018-09-27T22:52:50.966Z,27.93
2018-09-27T22:55:19.127Z,28.57
2018-09-27T22:57:47.224Z,28.03
2018-09-27T23:00:15.360Z,30.93
2018-09-27T23:02:43.460Z,35.17
2018-09-27T23:05:11.611Z,30.40
2018-09-27T23:07:39.700Z,31.27
2018-09-27T23:10:07.813Z,30.80
2018-09-27T23:12:35.919Z,34.30
2018-09-27T23:15:04.218Z,28.43
2018-09-27T23:17:32.315Z,30.77
2018-09-27T23:20:00.446Z,31.77
2018-09-27T23:22:28.625Z,29.53
2018-09-27T23:24:56.741Z,31.80
2018-09-27T23:27:24.866Z,29.60
2018-09-27T23:29:52.980Z,29.73
2018-09-27T23:32:21.078Z,31.33
2018-09-27T23:34:49.186Z,30.23
2018-09-27T23:37:17.287Z,32.80
2018-09-27T23:39:45.377Z,29.37
2018-09-27T23:42:13.503Z,31.80
2018-09-27T23:44:41.611Z,30.30
2018-09-27T23:47:09.723Z,35.33
2018-09-27T23:49:37.864Z,33.57
2018-09-27T23:52:06.009Z,35.90
2018-09-27T23:54:34.171Z,29.13
2018-09-27T23:57:02.280Z,28.13
2018-09-27T23:59:30.414Z,33.80
